Time;durP1;ratioP1;P1;durP2;ratioP2;P2;SDS_P1;SDS_P2;PMS_P1;PMS_P2;Temp;Humidity;BMP_temperature;BMP_pressure;BME280_temperature;BME280_humidity;BME280_pressure;Samples;Min_cycle;Max_cycle;Signal;HPM_P1;HPM_P2
2022/06/21 00:01:58;;;;;;;5.20;5.00;;;;;;;-143.83;100.00;62900.06;5031806;28;20079;-65
2022/06/21 00:04:24;;;;;;;5.07;4.88;;;;;;;-143.83;100.00;62900.06;5033387;28;20021;-63
2022/06/21 00:06:49;;;;;;;5.05;4.85;;;;;;;-143.83;100.00;62900.06;5033247;28;20445;-63
2022/06/21 00:09:16;;;;;;;5.10;4.90;;;;;;;-143.83;100.00;62900.06;5031958;28;20029;-64
2022/06/21 00:11:41;;;;;;;5.03;4.82;;;;;;;-143.83;100.00;62900.06;5033072;28;20029;-64
2022/06/21 00:14:07;;;;;;;5.10;4.90;;;;;;;-143.83;100.00;62900.06;5033116;28;20463;-63
2022/06/21 00:16:33;;;;;;;4.90;4.70;;;;;;;-143.83;100.00;62900.06;5033053;28;20029;-64
2022/06/21 00:18:59;;;;;;;5.05;4.85;;;;;;;-143.83;100.00;62900.06;5020525;28;20029;-63
2022/06/21 00:21:31;;;;;;;5.10;4.90;;;;;;;-143.83;100.00;62900.06;5032727;28;20082;-63
2022/06/21 00:23:56;;;;;;;5.07;4.88;;;;;;;-143.83;100.00;62900.06;5018430;28;20026;-63
2022/06/21 00:26:25;;;;;;;5.00;4.80;;;;;;;-143.83;100.00;62900.06;5031816;28;20032;-65
2022/06/21 00:28:51;;;;;;;4.95;4.75;;;;;;;-143.83;100.00;62900.06;5023723;28;20083;-64
2022/06/21 00:31:26;;;;;;;5.00;4.80;;;;;;;-143.83;100.00;62900.06;5026378;28;20104;-65
2022/06/21 00:33:52;;;;;;;5.20;5.00;;;;;;;-143.83;100.00;62900.06;5032767;28;20489;-63
2022/06/21 00:36:31;;;;;;;4.90;4.70;;;;;;;-143.83;100.00;62900.06;5032031;28;20039;-64
2022/06/21 00:38:59;;;;;;;5.10;4.90;;;;;;;-143.83;100.00;62900.06;5032416;28;20488;-62
2022/06/21 00:41:51;;;;;;;5.28;5.07;;;;;;;-143.83;100.00;62900.06;5029637;28;20029;-62
2022/06/21 00:44:23;;;;;;;5.20;5.00;;;;;;;-143.83;100.00;62900.06;5033033;28;20032;-64
2022/06/21 00:47:03;;;;;;;5.10;4.90;;;;;;;-143.83;100.00;62900.06;5031487;28;20025;-64
2022/06/21 00:49:35;;;;;;;5.00;4.80;;;;;;;-143.83;100.00;62900.06;5032277;28;20171;-63
2022/06/21 00:52:14;;;;;;;5.10;4.90;;;;;;;-143.83;100.00;62900.06;5031639;28;20548;-63
2022/06/21 00:54:57;;;;;;;5.07;4.88;;;;;;;-143.83;100.00;62900.06;5032256;28;20073;-64
2022/06/21 00:57:29;;;;;;;4.95;4.75;;;;;;;-143.83;100.00;62900.06;5022986;28;20055;-63
2022/06/21 00:59:58;;;;;;;5.13;4.93;;;;;;;-143.83;100.00;62900.06;5032364;28;20133;-63
2022/06/21 01:02:33;;;;;;;4.90;4.70;;;;;;;-143.83;100.00;62900.06;5031837;28;20030;-63
2022/06/21 01:05:01;;;;;;;5.00;4.80;;;;;;;-143.83;100.00;62900.06;5032360;28;20029;-63
2022/06/21 01:07:27;;;;;;;5.10;4.90;;;;;;;-143.83;100.00;62900.06;5032583;28;20033;-63
2022/06/21 01:10:05;;;;;;;4.97;4.78;;;;;;;-143.83;100.00;62900.06;5031603;28;20056;-63
2022/06/21 01:12:40;;;;;;;4.90;4.70;;;;;;;-143.83;100.00;62900.06;5027107;28;20026;-63
2022/06/21 01:15:10;;;;;;;4.97;4.78;;;;;;;-143.83;100.00;62900.06;5024594;28;20036;-63
2022/06/21 01:17:36;;;;;;;5.00;4.80;;;;;;;-143.83;100.00;62900.06;5032152;28;20021;-63
2022/06/21 01:20:06;;;;;;;4.90;4.70;;;;;;;-143.83;100.00;62900.06;5031808;28;20657;-63
2022/06/21 01:23:01;;;;;;;4.90;4.70;;;;;;;-143.83;100.00;62900.06;5031924;28;20029;-63
2022/06/21 01:25:45;;;;;;;4.90;4.70;;;;;;;-143.83;100.00;62900.06;4999494;28;20036;-63
2022/06/21 01:28:11;;;;;;;4.90;4.70;;;;;;;-143.83;100.00;62900.06;5027413;28;20033;-63
2022/06/21 01:30:39;;;;;;;4.75;4.55;;;;;;;-143.83;100.00;62900.06;5028332;28;20052;-63
2022/06/21 01:33:05;;;;;;;4.88;4.68;;;;;;;-143.83;100.00;62900.06;5031817;28;20481;-63
2022/06/21 01:35:40;;;;;;;4.82;4.63;;;;;;;-143.83;100.00;62900.06;5031633;28;20037;-63
2022/06/21 01:38:08;;;;;;;;;;;;;;;-143.83;100.00;62900.06;5032213;28;20493;-63
2022/06/21 01:40:39;;;;;;;4.95;4.75;;;;;;;-143.83;100.00;62900.06;5031589;28;19923;-63
2022/06/21 01:43:09;;;;;;;5.07;4.88;;;;;;;-143.83;100.00;62900.06;5031116;28;20032;-62
2022/06/21 01:45:41;;;;;;;5.03;4.82;;;;;;;-143.83;100.00;62900.06;5029427;28;20385;-63
2022/06/21 01:48:16;;;;;;;5.00;4.80;;;;;;;-143.83;100.00;62900.06;5027379;28;20035;-64
2022/06/21 01:50:44;;;;;;;5.07;4.88;;;;;;;-143.83;100.00;62900.06;5030810;28;20026;-63
2022/06/21 01:53:10;;;;;;;4.80;4.60;;;;;;;-143.83;100.00;62900.06;5032384;28;20029;-64
2022/06/21 01:55:47;;;;;;;5.07;4.88;;;;;;;-143.83;100.00;62900.06;5031690;28;20098;-63
2022/06/21 01:58:18;;;;;;;4.90;4.70;;;;;;;-143.83;100.00;62900.06;5031540;28;20055;-64
2022/06/21 02:00:50;;;;;;;4.90;4.70;;;;;;;-143.83;100.00;62900.06;5025018;28;20026;-63
2022/06/21 02:03:21;;;;;;;4.80;4.60;;;;;;;-143.83;100.00;62900.06;5025412;28;20397;-64
2022/06/21 02:05:52;;;;;;;4.90;4.70;;;;;;;-143.83;100.00;62900.06;5018447;28;20751;-63
2022/06/21 02:08:23;;;;;;;4.90;4.70;;;;;;;-143.83;100.00;62900.06;5031414;28;20088;-64
2022/06/21 02:10:57;;;;;;;4.88;4.68;;;;;;;-143.83;100.00;62900.06;5038046;28;20045;-63
2022/06/21 02:13:31;;;;;;;4.80;4.60;;;;;;;-143.83;100.00;62900.06;5031257;28;20033;-64
2022/06/21 02:16:02;;;;;;;4.70;4.50;;;;;;;-143.83;100.00;62900.06;5019000;28;20029;-63
2022/06/21 02:18:32;;;;;;;4.95;4.75;;;;;;;-143.83;100.00;62900.06;5016113;28;20036;-63
2022/06/21 02:21:08;;;;;;;4.90;4.70;;;;;;;-143.83;100.00;62900.06;5030570;28;20520;-63
2022/06/21 02:23:34;;;;;;;4.90;4.70;;;;;;;-143.83;100.00;62900.06;5031369;28;20060;-64
2022/06/21 02:25:59;;;;;;;4.90;4.70;;;;;;;-143.83;100.00;62900.06;5029450;28;20018;-64
2022/06/21 02:28:28;;;;;;;4.82;4.63;;;;;;;-143.83;100.00;62900.06;5031846;28;20025;-63
2022/06/21 02:30:55;;;;;;;4.80;4.60;;;;;;;-143.83;100.00;62900.06;5031550;28;20018;-63
2022/06/21 02:33:27;;;;;;;4.78;4.57;;;;;;;-143.83;100.00;62900.06;5031376;28;20397;-63
2022/06/21 02:36:04;;;;;;;4.90;4.70;;;;;;;-143.83;100.00;62900.06;5029515;28;20409;-63
2022/06/21 02:38:32;;;;;;;4.90;4.70;;;;;;;-143.83;100.00;62900.06;5030931;28;20080;-64
2022/06/21 02:41:12;;;;;;;4.90;4.70;;;;;;;-143.83;100.00;62900.06;5030219;28;20025;-63
2022/06/21 02:43:44;;;;;;;4.93;4.72;;;;;;;-143.83;100.00;62900.06;5022209;28;20057;-63
2022/06/21 02:46:15;;;;;;;4.95;4.75;;;;;;;-143.83;100.00;62900.06;5021896;28;20029;-63
2022/06/21 02:48:55;;;;;;;5.00;4.80;;;;;;;-143.83;100.00;62900.06;5030905;28;20500;-63
2022/06/21 02:51:26;;;;;;;4.90;4.70;;;;;;;-143.83;100.00;62900.06;5032140;28;20106;-63
2022/06/21 02:54:02;;;;;;;5.00;4.80;;;;;;;-143.83;100.00;62900.06;5032163;28;20063;-63
2022/06/21 02:56:42;;;;;;;5.00;4.80;;;;;;;-143.83;100.00;62900.06;5033969;28;20436;-62
2022/06/21 02:59:11;;;;;;;5.10;4.90;;;;;;;-143.83;100.00;62900.06;5034586;28;20030;-64
2022/06/21 03:01:44;;;;;;;5.13;4.93;;;;;;;-143.83;100.00;62900.06;5035018;28;20048;-63
2022/06/21 03:04:20;;;;;;;5.10;4.90;;;;;;;-143.83;100.00;62900.06;5033216;28;20476;-64
2022/06/21 03:06:47;;;;;;;5.10;4.90;;;;;;;-143.83;100.00;62900.06;5034556;28;20029;-64
2022/06/21 03:09:17;;;;;;;5.10;4.90;;;;;;;-143.83;100.00;62900.06;5033367;28;20025;-67
2022/06/21 03:11:46;;;;;;;5.20;5.00;;;;;;;-143.83;100.00;62900.06;5020125;28;20037;-63
2022/06/21 03:14:16;;;;;;;5.10;4.90;;;;;;;-143.83;100.00;62900.06;5034043;28;20026;-64
2022/06/21 03:16:43;;;;;;;5.50;5.30;;;;;;;-143.83;100.00;62900.06;5034093;28;20030;-63
2022/06/21 03:19:25;;;;;;;5.43;5.22;;;;;;;-143.83;100.00;62900.06;5042734;28;20025;-63
2022/06/21 03:21:52;;;;;;;5.53;5.32;;;;;;;-143.83;100.00;62900.06;5034304;28;20426;-63
2022/06/21 03:24:21;;;;;;;5.60;5.40;;;;;;;-143.83;100.00;62900.06;5034248;28;20021;-64
2022/06/21 03:27:03;;;;;;;5.40;5.20;;;;;;;-143.83;100.00;62900.06;5028684;28;20164;-64
2022/06/21 03:29:29;;;;;;;5.53;5.32;;;;;;;-143.83;100.00;62900.06;5027947;28;20124;-63
2022/06/21 03:31:57;;;;;;;5.45;5.25;;;;;;;-143.83;100.00;62900.06;5031752;28;20048;-64
2022/06/21 03:34:24;;;;;;;5.55;5.35;;;;;;;-143.83;100.00;62900.06;5034094;28;20151;-64
2022/06/21 03:36:50;;;;;;;5.70;5.40;;;;;;;-143.83;100.00;62900.06;5031905;28;20025;-63
2022/06/21 03:41:42;;;;;;;5.50;5.30;;;;;;;-143.83;100.00;62900.06;5033270;28;20432;-64
2022/06/21 03:42:13;;;;;;;5.65;5.45;;;;;;;-143.83;100.00;62900.06;5020698;28;20034;-63
2022/06/21 03:44:46;;;;;;;5.70;5.50;;;;;;;-143.83;100.00;62900.06;5033438;28;20018;-64
2022/06/21 03:47:21;;;;;;;5.70;5.50;;;;;;;-143.83;100.00;62900.06;5021248;28;20033;-63
2022/06/21 03:49:57;;;;;;;5.60;5.40;;;;;;;-143.83;100.00;62900.06;5026872;28;20053;-64
2022/06/21 03:52:42;;;;;;;5.63;5.43;;;;;;;-143.83;100.00;62900.06;5033770;28;20025;-64
2022/06/21 03:55:21;;;;;;;5.70;5.50;;;;;;;-143.83;100.00;62900.06;5031073;28;20018;-63
2022/06/21 03:58:14;;;;;;;5.80;5.60;;;;;;;-143.83;100.00;62900.06;5024419;28;20033;-63
2022/06/21 04:00:48;;;;;;;5.93;5.72;;;;;;;-143.83;100.00;62900.06;5031735;28;20033;-63
2022/06/21 04:03:24;;;;;;;5.70;5.50;;;;;;;-143.83;100.00;62900.06;5032084;28;20037;-63
2022/06/21 04:06:10;;;;;;;5.70;5.50;;;;;;;-143.83;100.00;62900.06;5033274;28;20022;-64
2022/06/21 04:08:46;;;;;;;5.70;5.50;;;;;;;-143.83;100.00;62900.06;5035090;28;20032;-63
2022/06/21 04:11:39;;;;;;;5.80;5.60;;;;;;;-143.83;100.00;62900.06;5036836;28;20056;-64
2022/06/21 04:14:20;;;;;;;5.70;5.50;;;;;;;-143.83;100.00;62900.06;5026867;28;20389;-64
2022/06/21 04:17:17;;;;;;;5.70;5.50;;;;;;;-143.83;100.00;62900.06;5022393;28;20033;-64
2022/06/21 04:19:56;;;;;;;5.90;5.70;;;;;;;-143.83;100.00;62900.06;5032762;28;20025;-64
2022/06/21 04:22:32;;;;;;;5.60;5.40;;;;;;;-143.83;100.00;62900.06;5023877;28;20026;-63
2022/06/21 04:25:11;;;;;;;5.78;5.57;;;;;;;-143.83;100.00;62900.06;5031804;28;20056;-64
2022/06/21 04:27:46;;;;;;;5.70;5.50;;;;;;;-143.83;100.00;62900.06;5039191;28;20027;-64
2022/06/21 04:30:22;;;;;;;5.72;5.53;;;;;;;-143.83;100.00;62900.06;5030800;28;20087;-63
2022/06/21 04:32:57;;;;;;;5.80;5.60;;;;;;;-143.83;100.00;62900.06;5030269;28;20091;-63
2022/06/21 04:35:34;;;;;;;6.05;5.85;;;;;;;-143.83;100.00;62900.06;5031918;28;20108;-65
2022/06/21 04:38:23;;;;;;;6.00;5.80;;;;;;;-143.83;100.00;62900.06;5031976;28;20413;-63
2022/06/21 04:40:58;;;;;;;5.78;5.57;;;;;;;-143.83;100.00;62900.06;5031423;28;20030;-62
2022/06/21 04:43:40;;;;;;;6.07;5.88;;;;;;;-143.83;100.00;62900.06;5024765;28;20029;-64
2022/06/21 04:46:16;;;;;;;5.90;5.70;;;;;;;-143.83;100.00;62900.06;5024580;28;20025;-63
2022/06/21 04:48:45;;;;;;;5.80;5.60;;;;;;;-143.83;100.00;62900.06;5024496;28;20061;-63
2022/06/21 04:51:21;;;;;;;5.80;5.60;;;;;;;-143.83;100.00;62900.06;5028777;28;20052;-63
2022/06/21 04:53:59;;;;;;;5.85;5.65;;;;;;;-143.83;100.00;62900.06;5019952;28;20441;-63
2022/06/21 04:56:47;;;;;;;6.05;5.85;;;;;;;-143.83;100.00;62900.06;5029340;28;20151;-63
2022/06/21 04:59:26;;;;;;;5.90;5.70;;;;;;;-143.83;100.00;62900.06;5021082;28;20033;-63
2022/06/21 05:01:53;;;;;;;6.43;6.13;;;;;;;-143.83;100.00;62900.06;5015281;28;20079;-62
2022/06/21 05:04:21;;;;;;;6.05;5.85;;;;;;;-143.83;100.00;62900.06;5028153;28;20033;-63
2022/06/21 05:06:49;;;;;;;5.88;5.68;;;;;;;-143.83;100.00;62900.06;5027478;28;20033;-62
2022/06/21 05:09:18;;;;;;;6.10;5.90;;;;;;;-143.83;100.00;62900.06;5027716;28;20025;-63
2022/06/21 05:11:44;;;;;;;6.10;5.90;;;;;;;-143.83;100.00;62900.06;5028467;28;20385;-62
2022/06/21 05:14:23;;;;;;;6.10;5.90;;;;;;;-143.83;100.00;62900.06;5027950;28;20033;-63
2022/06/21 05:16:52;;;;;;;6.15;5.95;;;;;;;-143.83;100.00;62900.06;5029072;28;20027;-62
2022/06/21 05:19:21;;;;;;;6.15;5.95;;;;;;;-143.83;100.00;62900.06;5025820;28;20099;-63
2022/06/21 05:22:16;;;;;;;6.35;6.07;;;;;;;-143.83;100.00;62900.06;5020787;28;20116;-63
2022/06/21 05:24:44;;;;;;;6.10;5.90;;;;;;;-143.83;100.00;62900.06;5020407;28;20029;-63
2022/06/21 05:27:12;;;;;;;6.38;6.10;;;;;;;-143.83;100.00;62900.06;5028509;28;20056;-64
2022/06/21 05:29:52;;;;;;;6.30;6.05;;;;;;;-143.83;100.00;62900.06;5028435;28;20033;-63
2022/06/21 05:32:22;;;;;;;6.25;6.05;;;;;;;-143.83;100.00;62900.06;5016338;28;20028;-63
2022/06/21 05:34:54;;;;;;;6.32;6.03;;;;;;;-143.83;100.00;62900.06;5023704;28;20412;-62
2022/06/21 05:37:28;;;;;;;6.15;5.95;;;;;;;-143.83;100.00;62900.06;5021286;28;20074;-63
2022/06/21 05:39:57;;;;;;;6.28;6.03;;;;;;;-143.83;100.00;62900.06;5035339;28;20033;-64
2022/06/21 05:42:26;;;;;;;6.20;6.00;;;;;;;-143.83;100.00;62900.06;5026935;28;20460;-64
2022/06/21 05:44:54;;;;;;;6.43;6.13;;;;;;;-143.83;100.00;62900.06;5026065;28;20087;-64
2022/06/21 05:47:23;;;;;;;6.20;6.00;;;;;;;-143.83;100.00;62900.06;5016311;28;20040;-64
2022/06/21 05:49:49;;;;;;;6.38;6.07;;;;;;;-143.83;100.00;62900.06;5020175;28;20124;-64
2022/06/21 05:52:26;;;;;;;6.40;6.10;;;;;;;-143.83;100.00;62900.06;5018759;28;20033;-64
2022/06/21 05:55:00;;;;;;;6.20;6.00;;;;;;;-143.83;100.00;62900.06;5024357;28;20029;-64
2022/06/21 05:57:58;;;;;;;6.07;5.88;;;;;;;-143.83;100.00;62900.06;5035555;28;20041;-65
2022/06/21 06:01:05;;;;;;;6.40;6.10;;;;;;;-143.83;100.00;62900.06;5029861;28;20416;-64
2022/06/21 06:03:52;;;;;;;6.20;6.00;;;;;;;-143.83;100.00;62900.06;5007104;28;20104;-63
2022/06/21 06:06:20;;;;;;;6.07;5.88;;;;;;;-143.83;100.00;62900.06;5023848;28;20083;-63
2022/06/21 06:08:57;;;;;;;6.18;5.97;;;;;;;-143.83;100.00;62900.06;5032398;28;20136;-64
2022/06/21 06:11:57;;;;;;;6.07;5.88;;;;;;;-143.83;100.00;62900.06;5017884;28;20072;-63
2022/06/21 06:14:15;;;;;;;6.53;6.22;;;;;;;-143.83;100.00;62900.06;5021652;28;20137;-64
2022/06/21 06:16:42;;;;;;;6.40;6.10;;;;;;;-143.83;100.00;62900.06;5031933;28;20518;-63
2022/06/21 06:19:38;;;;;;;6.50;6.20;;;;;;;-143.83;100.00;62900.06;5021696;28;20044;-64
2022/06/21 06:22:14;;;;;;;6.45;6.15;;;;;;;-143.83;100.00;62900.06;5027340;28;20535;-64
2022/06/21 06:25:12;;;;;;;6.43;6.13;;;;;;;-143.83;100.00;62900.06;5022563;28;20083;-66
2022/06/21 06:27:54;;;;;;;6.43;6.13;;;;;;;-143.83;100.00;62900.06;5032463;28;21012;-64
2022/06/21 06:30:28;;;;;;;6.35;6.05;;;;;;;-143.83;100.00;62900.06;5021870;28;20059;-65
2022/06/21 06:33:17;;;;;;;6.55;6.25;;;;;;;-143.83;100.00;62900.06;5022640;28;20033;-63
2022/06/21 06:35:44;;;;;;;6.43;6.13;;;;;;;-143.83;100.00;62900.06;5025108;28;20041;-65
2022/06/21 06:38:14;;;;;;;6.70;6.40;;;;;;;-143.83;100.00;62900.06;5030503;28;20029;-65
2022/06/21 06:40:46;;;;;;;6.50;6.20;;;;;;;-143.83;100.00;62900.06;5031260;28;20032;-65
2022/06/21 06:43:48;;;;;;;6.67;6.37;;;;;;;-143.83;100.00;62900.06;5018429;28;20068;-63
2022/06/21 06:46:24;;;;;;;6.80;6.50;;;;;;;-143.83;100.00;62900.06;5014446;28;20052;-63
2022/06/21 06:48:50;;;;;;;6.38;6.07;;;;;;;-143.83;100.00;62900.06;5022165;28;20044;-64
2022/06/21 06:51:15;;;;;;;6.57;6.28;;;;;;;-143.83;100.00;62900.06;5022608;28;20044;-64
2022/06/21 06:53:50;;;;;;;6.60;6.30;;;;;;;-143.83;100.00;62900.06;5038724;28;20033;-64
2022/06/21 06:56:33;;;;;;;6.50;6.20;;;;;;;-143.83;100.00;62900.06;5030809;28;20052;-62
2022/06/21 06:59:05;;;;;;;;;;;;;;;-143.83;100.00;62900.06;5025550;28;20039;-63
2022/06/21 07:02:17;;;;;;;6.28;6.07;;;;;;;-143.83;100.00;62900.06;5027382;28;19928;-61
2022/06/21 07:04:47;;;;;;;6.28;6.07;;;;;;;-143.83;100.00;62900.06;5029700;28;20029;-63
2022/06/21 07:07:22;;;;;;;6.47;6.18;;;;;;;-143.83;100.00;62900.06;5030619;28;20025;-63
2022/06/21 07:09:56;;;;;;;6.50;6.20;;;;;;;-143.83;100.00;62900.06;5023644;28;20248;-64
2022/06/21 07:12:28;;;;;;;5.97;5.78;;;;;;;-143.83;100.00;62900.06;5027099;28;20025;-63
2022/06/21 07:14:55;;;;;;;6.43;6.13;;;;;;;-143.83;100.00;62900.06;5030058;28;20055;-63
2022/06/21 07:17:41;;;;;;;6.20;6.00;;;;;;;-143.83;100.00;62900.06;5033646;28;20040;-63
2022/06/21 07:20:37;;;;;;;6.00;5.80;;;;;;;-143.83;100.00;62900.06;5026881;28;20029;-64
2022/06/21 07:23:03;;;;;;;5.93;5.72;;;;;;;-143.83;100.00;62900.06;5021644;28;20037;-64
2022/06/21 07:25:38;;;;;;;5.97;5.78;;;;;;;-143.83;100.00;62900.06;5022111;28;20033;-63
2022/06/21 07:28:14;;;;;;;5.88;5.68;;;;;;;-143.83;100.00;62900.06;5029007;28;20569;-63
2022/06/21 07:30:45;;;;;;;5.70;5.50;;;;;;;-143.83;100.00;62900.06;5022961;28;20067;-64
2022/06/21 07:33:37;;;;;;;5.78;5.57;;;;;;;-143.83;100.00;62900.06;5025269;28;20028;-63
2022/06/21 07:36:18;;;;;;;5.97;5.78;;;;;;;-143.83;100.00;62900.06;5023954;28;20056;-64
2022/06/21 07:38:59;;;;;;;5.55;5.35;;;;;;;-143.83;100.00;62900.06;5025717;28;20101;-64
2022/06/21 07:41:33;;;;;;;5.85;5.65;;;;;;;-143.83;100.00;62900.06;5014261;28;20030;-64
2022/06/21 07:44:06;;;;;;;5.68;5.47;;;;;;;-143.83;100.00;62900.06;5022849;28;20021;-65
2022/06/21 07:46:42;;;;;;;5.50;5.30;;;;;;;-143.83;100.00;62900.06;5023728;28;20048;-64
2022/06/21 07:49:25;;;;;;;5.70;5.50;;;;;;;-143.83;100.00;62900.06;5029260;28;20057;-64
2022/06/21 07:51:57;;;;;;;5.78;5.57;;;;;;;-143.83;100.00;62900.06;5031268;28;20025;-65
2022/06/21 07:54:28;;;;;;;5.50;5.30;;;;;;;-143.83;100.00;62900.06;5020385;28;20053;-65
2022/06/21 07:56:56;;;;;;;5.47;5.28;;;;;;;-143.83;100.00;62900.06;5023059;28;20031;-65
2022/06/21 07:59:31;;;;;;;5.53;5.32;;;;;;;-143.83;100.00;62900.06;5025985;28;20519;-64
2022/06/21 08:07:56;;;;;;;5.60;5.40;;;;;;;-143.83;100.00;62900.06;5028535;28;20404;-66
2022/06/21 08:10:31;;;;;;;5.60;5.40;;;;;;;-143.83;100.00;62900.06;5026225;28;20143;-66
2022/06/21 08:12:57;;;;;;;5.50;5.30;;;;;;;-143.83;100.00;62900.06;5015688;28;20021;-64
2022/06/21 08:15:28;;;;;;;5.72;5.53;;;;;;;-143.83;100.00;62900.06;5014120;28;20192;-64
2022/06/21 08:18:01;;;;;;;5.72;5.53;;;;;;;-143.83;100.00;62900.06;5031322;28;20036;-65
2022/06/21 08:20:38;;;;;;;5.53;5.32;;;;;;;-143.83;100.00;62900.06;5028038;28;20170;-63
2022/06/21 08:23:18;;;;;;;5.70;5.50;;;;;;;-143.83;100.00;62900.06;5023715;28;20489;-65
2022/06/21 08:26:03;;;;;;;5.70;5.50;;;;;;;-143.83;100.00;62900.06;5025242;28;20037;-64
2022/06/21 08:28:41;;;;;;;5.55;5.35;;;;;;;-143.83;100.00;62900.06;5024664;28;20301;-62
2022/06/21 08:31:27;;;;;;;5.80;5.60;;;;;;;-143.83;100.00;62900.06;5019313;28;20100;-63
2022/06/21 08:33:55;;;;;;;6.00;5.80;;;;;;;-143.83;100.00;62900.06;5024268;28;20040;-63
2022/06/21 08:36:30;;;;;;;5.78;5.57;;;;;;;-143.83;100.00;62900.06;5023822;28;20046;-63
2022/06/21 08:39:01;;;;;;;5.70;5.50;;;;;;;-143.83;100.00;62900.06;5025510;28;20037;-62
2022/06/21 08:41:57;;;;;;;5.72;5.53;;;;;;;-143.83;100.00;62900.06;5023404;28;20037;-63
2022/06/21 08:47:59;;;;;;;5.70;5.50;;;;;;;-143.83;100.00;62900.06;5016415;28;20043;-64
2022/06/21 08:50:32;;;;;;;5.60;5.40;;;;;;;-143.83;100.00;62900.06;5025091;28;20061;-63
2022/06/21 08:53:25;;;;;;;5.80;5.60;;;;;;;-143.83;100.00;62900.06;5020735;28;20063;-63
2022/06/21 08:56:01;;;;;;;5.80;5.60;;;;;;;-143.83;100.00;62900.06;5027251;28;20052;-63
2022/06/21 08:58:37;;;;;;;5.70;5.50;;;;;;;-143.83;100.00;62900.06;5026643;28;20029;-65
2022/06/21 09:01:14;;;;;;;5.60;5.40;;;;;;;-143.83;100.00;62900.06;5015925;28;20509;-65
2022/06/21 09:03:58;;;;;;;5.80;5.60;;;;;;;-143.83;100.00;62900.06;5026539;28;20040;-64
2022/06/21 09:06:54;;;;;;;5.75;5.55;;;;;;;-143.83;100.00;62900.06;5024963;28;20443;-65
2022/06/21 09:09:49;;;;;;;5.75;5.55;;;;;;;-143.83;100.00;62900.06;5024320;28;20396;-63
2022/06/21 09:12:42;;;;;;;5.65;5.45;;;;;;;-143.83;100.00;62900.06;5027201;28;20035;-64
2022/06/21 09:15:19;;;;;;;5.72;5.53;;;;;;;-143.83;100.00;62900.06;5018349;28;20038;-64
2022/06/21 09:17:48;;;;;;;5.65;5.45;;;;;;;-143.83;100.00;62900.06;5013581;28;20021;-63
2022/06/21 09:20:32;;;;;;;5.75;5.55;;;;;;;-143.83;100.00;62900.06;5022334;28;20034;-63
2022/06/21 09:23:08;;;;;;;5.70;5.50;;;;;;;-143.83;100.00;62900.06;5027106;28;20037;-64
2022/06/21 09:25:44;;;;;;;5.68;5.47;;;;;;;-143.83;100.00;62900.06;5037934;28;20036;-65
2022/06/21 09:28:15;;;;;;;5.55;5.35;;;;;;;-143.83;100.00;62900.06;5029654;28;20030;-63
2022/06/21 09:30:56;;;;;;;5.50;5.30;;;;;;;-143.83;100.00;62900.06;5033391;28;20052;-64
2022/06/21 09:33:46;;;;;;;5.45;5.25;;;;;;;-143.83;100.00;62900.06;5023794;28;20025;-65
2022/06/21 09:36:17;;;;;;;5.40;5.20;;;;;;;-143.83;100.00;62900.06;5022593;28;20437;-64
2022/06/21 09:38:59;;;;;;;5.53;5.32;;;;;;;-143.83;100.00;62900.06;5021043;28;20535;-65
2022/06/21 09:41:40;;;;;;;5.47;5.28;;;;;;;-143.83;100.00;62900.06;5024385;28;20033;-64
2022/06/21 09:44:19;;;;;;;5.70;5.50;;;;;;;-143.83;100.00;62900.06;5020174;28;20037;-64
2022/06/21 09:46:58;;;;;;;5.65;5.45;;;;;;;-143.83;100.00;62900.06;5022846;28;20181;-65
2022/06/21 09:49:26;;;;;;;5.53;5.32;;;;;;;-143.83;100.00;62900.06;5025012;28;20107;-61
2022/06/21 09:52:18;;;;;;;5.50;5.30;;;;;;;-143.83;100.00;62900.06;5022987;28;20037;-61
2022/06/21 09:54:59;;;;;;;5.40;5.20;;;;;;;-143.83;100.00;62900.06;5030859;28;20037;-63
2022/06/21 09:58:11;;;;;;;5.50;5.30;;;;;;;-143.83;100.00;62900.06;5028472;28;20515;-62
2022/06/21 10:01:12;;;;;;;5.50;5.30;;;;;;;-143.83;100.00;62900.06;5047163;28;20044;-62
2022/06/21 10:03:53;;;;;;;5.65;5.45;;;;;;;-143.83;100.00;62900.06;5052441;28;20567;-61
2022/06/21 10:06:31;;;;;;;5.50;5.30;;;;;;;-143.83;100.00;62900.06;5043215;28;20056;-61
2022/06/21 10:09:18;;;;;;;5.65;5.45;;;;;;;-143.83;100.00;62900.06;5029216;28;20064;-62
2022/06/21 10:11:50;;;;;;;5.65;5.45;;;;;;;-143.83;100.00;62900.06;5035291;28;20028;-63
2022/06/21 10:14:30;;;;;;;5.35;5.15;;;;;;;-143.83;100.00;62900.06;5028533;28;20024;-62
2022/06/21 10:17:28;;;;;;;5.40;5.20;;;;;;;-143.83;100.00;62900.06;5033730;28;20033;-62
2022/06/21 10:20:13;;;;;;;5.50;5.30;;;;;;;-143.83;100.00;62900.06;5034997;28;20152;-61
2022/06/21 10:23:06;;;;;;;5.40;5.20;;;;;;;-143.83;100.00;62900.06;5035219;28;20065;-61
2022/06/21 10:25:32;;;;;;;5.60;5.40;;;;;;;-143.83;100.00;62900.06;5023750;28;20028;-63
2022/06/21 10:28:12;;;;;;;5.50;5.30;;;;;;;-143.83;100.00;62900.06;5033868;28;20392;-61
2022/06/21 10:31:15;;;;;;;5.60;5.40;;;;;;;-143.83;100.00;62900.06;5031528;28;20083;-62
2022/06/21 10:34:11;;;;;;;5.60;5.40;;;;;;;-143.83;100.00;62900.06;5034931;28;20033;-61
2022/06/21 10:36:48;;;;;;;5.50;5.30;;;;;;;-143.83;100.00;62900.06;5022688;28;20373;-61
2022/06/21 10:39:47;;;;;;;5.60;5.40;;;;;;;-143.83;100.00;62900.06;5034411;28;20100;-62
2022/06/21 10:42:49;;;;;;;5.35;5.15;;;;;;;-143.83;100.00;62900.06;5034643;28;20033;-62
2022/06/21 10:45:33;;;;;;;5.68;5.47;;;;;;;-143.83;100.00;62900.06;5034658;28;20025;-60
2022/06/21 10:48:20;;;;;;;5.45;5.25;;;;;;;-143.83;100.00;62900.06;5033564;28;20021;-61
2022/06/21 10:51:17;;;;;;;5.22;5.03;;;;;;;-143.83;100.00;62900.06;5034260;28;20049;-60
2022/06/21 10:53:48;;;;;;;5.35;5.15;;;;;;;-143.83;100.00;62900.06;5034447;28;20025;-61
2022/06/21 11:01:16;;;;;;;5.30;5.10;;;;;;;-143.83;100.00;62900.06;5034521;28;20112;-61
2022/06/21 11:02:43;;;;;;;5.20;5.00;;;;;;;-143.83;100.00;62900.06;5034072;28;20763;-61
2022/06/21 11:05:17;;;;;;;5.30;5.10;;;;;;;-143.83;100.00;62900.06;5033021;28;20087;-61
2022/06/21 11:07:56;;;;;;;5.30;5.10;;;;;;;-143.83;100.00;62900.06;5034269;28;20452;-62
2022/06/21 11:10:56;;;;;;;5.30;5.10;;;;;;;-143.83;100.00;62900.06;5030435;28;20041;-63
2022/06/21 11:13:26;;;;;;;5.25;5.05;;;;;;;-143.83;100.00;62900.06;5023426;28;20041;-61
2022/06/21 11:16:11;;;;;;;5.15;4.95;;;;;;;-143.83;100.00;62900.06;5034385;28;20040;-61
2022/06/21 11:18:36;;;;;;;5.40;5.20;;;;;;;-143.83;100.00;62900.06;5034020;28;20461;-61
2022/06/21 11:21:07;;;;;;;5.28;5.07;;;;;;;-143.83;100.00;62900.06;5028936;28;20108;-62
2022/06/21 11:23:39;;;;;;;5.50;5.30;;;;;;;-143.83;100.00;62900.06;5023003;28;20037;-63
2022/06/21 11:26:18;;;;;;;5.38;5.18;;;;;;;-143.83;100.00;62900.06;5041055;28;20040;-63
2022/06/21 11:28:55;;;;;;;5.50;5.30;;;;;;;-143.83;100.00;62900.06;5030754;28;20034;-61
2022/06/21 11:31:27;;;;;;;5.60;5.40;;;;;;;-143.83;100.00;62900.06;5032183;28;20030;-61
2022/06/21 11:34:17;;;;;;;5.50;5.30;;;;;;;-143.83;100.00;62900.06;5022118;28;20444;-63
2022/06/21 11:36:52;;;;;;;5.22;5.03;;;;;;;-143.83;100.00;62900.06;5023998;28;20700;-63
2022/06/21 11:39:40;;;;;;;5.53;5.32;;;;;;;-143.83;100.00;62900.06;5028242;28;20043;-64
2022/06/21 11:42:06;;;;;;;5.60;5.40;;;;;;;-143.83;100.00;62900.06;5029866;28;20422;-64
2022/06/21 11:44:53;;;;;;;5.53;5.32;;;;;;;-143.83;100.00;62900.06;5024503;28;20034;-62
2022/06/21 11:47:44;;;;;;;5.50;5.30;;;;;;;-143.83;100.00;62900.06;5029730;28;20583;-62
2022/06/21 11:50:23;;;;;;;5.50;5.30;;;;;;;-143.83;100.00;62900.06;5027046;28;20060;-62
2022/06/21 11:53:10;;;;;;;5.47;5.28;;;;;;;-143.83;100.00;62900.06;5018622;28;20078;-63
2022/06/21 11:55:42;;;;;;;5.50;5.30;;;;;;;-143.83;100.00;62900.06;5026298;28;20453;-65
2022/06/21 11:58:40;;;;;;;5.30;5.10;;;;;;;-143.83;100.00;62900.06;5028872;28;20033;-63
2022/06/21 12:01:20;;;;;;;5.40;5.20;;;;;;;-143.83;100.00;62900.06;5019535;28;20038;-63
2022/06/21 12:04:12;;;;;;;5.40;5.20;;;;;;;-143.83;100.00;62900.06;5022412;28;20152;-64
2022/06/21 12:06:48;;;;;;;5.40;5.20;;;;;;;-143.83;100.00;62900.06;5026302;28;20025;-64